Search for airport 
image banner adimage banner ad
image banner ad

EKSR - Stora Dimun

Located in Stora Dimun, Faroe Islands

ICAO - EKSR, IATA -

Data provided by Airmate  

General information

Coordinates: N61°41'7" W6°45'31"
Elevation is 305 feet MSL.
Magnetic variation is -8.1° East
View others Airports in (unassigned)

Operational data

Open for public use
Current time UTC:
Current local time:
Weather at : EKVG - Vagar ( 50 km )
METAR: EKVG 232220Z AUTO 00000KT 9999 BKN069/// M00/M02 Q0987
TAF: TAF EKVG 231421Z 2315/2321 29007KT 9999 SCT020 BKN030
View NOTAMs / SUP AIP / TFR affecting this airport [VIEW]
Communications frequencies: [VIEW]

Runways:

Airport contact information

Address: Stora Dimun Faroe Islands

Satellite view of EKSR